createdAt,value
2019-01-30T00:00:19.568Z,0
2019-01-30T00:01:19.304Z,0
2019-01-30T00:02:19.518Z,0
2019-01-30T00:03:19.483Z,0
2019-01-30T00:04:19.470Z,0
2019-01-30T00:05:19.444Z,0
2019-01-30T00:06:19.666Z,0
2019-01-30T00:07:19.650Z,0
2019-01-30T00:08:19.631Z,0
2019-01-30T00:09:19.601Z,0
2019-01-30T00:10:19.326Z,0
2019-01-30T00:11:19.040Z,0
2019-01-30T00:12:19.545Z,0
2019-01-30T00:13:19.279Z,0
2019-01-30T00:14:19.511Z,0
2019-01-30T00:15:19.238Z,0
2019-01-30T00:16:18.933Z,0
2019-01-30T00:17:19.448Z,0
2019-01-30T00:18:18.878Z,0
2019-01-30T00:19:19.106Z,0
2019-01-30T00:20:19.085Z,0
2019-01-30T00:21:19.060Z,0
2019-01-30T00:22:19.289Z,0
2019-01-30T00:23:19.036Z,0
2019-01-30T00:24:18.741Z,0
2019-01-30T00:25:18.962Z,0
2019-01-30T00:26:18.946Z,0
2019-01-30T00:27:18.660Z,0
2019-01-30T00:28:18.886Z,0
2019-01-30T00:29:18.897Z,0
2019-01-30T00:30:18.923Z,0
2019-01-30T00:31:18.570Z,0
2019-01-30T00:32:20.083Z,0
2019-01-30T00:33:19.048Z,0
2019-01-30T00:34:18.558Z,0
2019-01-30T00:35:18.733Z,0
2019-01-30T00:36:18.449Z,0
2019-01-30T00:37:18.180Z,0
2019-01-30T00:38:18.659Z,0
2019-01-30T00:39:18.885Z,0
2019-01-30T00:40:18.857Z,0
2019-01-30T00:41:18.331Z,0
2019-01-30T00:42:18.820Z,0
2019-01-30T00:43:18.534Z,0
2019-01-30T00:44:18.769Z,0
2019-01-30T00:45:18.244Z,0
2019-01-30T00:46:18.220Z,0
2019-01-30T00:47:22.827Z,0
2019-01-30T00:48:18.425Z,0
2019-01-30T00:49:18.138Z,0
2019-01-30T00:50:18.119Z,0
2019-01-30T00:51:18.142Z,0
2019-01-30T00:52:18.078Z,0
2019-01-30T00:53:18.047Z,0
2019-01-30T00:54:18.015Z,0
2019-01-30T00:55:18.519Z,0
2019-01-30T00:56:17.983Z,0
2019-01-30T00:57:18.214Z,0
2019-01-30T00:58:17.985Z,0
2019-01-30T00:59:18.252Z,0
2019-01-30T01:00:21.624Z,0
2019-01-30T01:01:18.358Z,0
2019-01-30T01:02:18.341Z,0
2019-01-30T01:03:18.322Z,0
2019-01-30T01:04:17.790Z,0
2019-01-30T01:05:18.285Z,0
2019-01-30T01:06:17.992Z,0
2019-01-30T01:07:17.710Z,0
2019-01-30T01:08:17.901Z,0
2019-01-30T01:09:18.184Z,0
2019-01-30T01:10:17.657Z,0
2019-01-30T01:11:17.617Z,0
2019-01-30T01:12:17.842Z,0
2019-01-30T01:13:19.260Z,0
2019-01-30T01:14:17.808Z,0
2019-01-30T01:15:17.792Z,0
2019-01-30T01:16:18.008Z,0
2019-01-30T01:17:17.794Z,0
2019-01-30T01:18:17.725Z,0
2019-01-30T01:19:17.678Z,0
2019-01-30T01:20:17.672Z,0
2019-01-30T01:21:17.893Z,0
2019-01-30T01:22:17.375Z,0
2019-01-30T01:23:17.088Z,0
2019-01-30T01:24:17.668Z,0
2019-01-30T01:25:17.617Z,0
2019-01-30T01:26:17.266Z,0
2019-01-30T01:27:17.743Z,0
2019-01-30T01:28:17.470Z,0
2019-01-30T01:29:17.728Z,0
2019-01-30T01:30:26.999Z,0
2019-01-30T01:31:17.754Z,0
2019-01-30T01:32:17.631Z,0
2019-01-30T01:33:17.354Z,0
2019-01-30T01:34:17.333Z,0
2019-01-30T01:35:17.614Z,0
2019-01-30T01:36:17.031Z,0
2019-01-30T01:37:17.293Z,0
2019-01-30T01:38:17.228Z,0
2019-01-30T01:39:17.222Z,0
2019-01-30T01:40:17.458Z,0
2019-01-30T01:41:17.182Z,0
2019-01-30T01:42:16.916Z,0
2019-01-30T01:43:17.366Z,0
2019-01-30T01:44:17.104Z,0
2019-01-30T01:45:16.903Z,0
2019-01-30T01:46:17.547Z,0
2019-01-30T01:47:17.019Z,0
2019-01-30T01:48:16.498Z,0
2019-01-30T01:49:17.222Z,0
2019-01-30T01:50:16.692Z,0
2019-01-30T01:51:16.923Z,0
2019-01-30T01:52:16.667Z,0
2019-01-30T01:53:17.152Z,0
2019-01-30T01:54:16.851Z,0
2019-01-30T01:55:17.094Z,0
2019-01-30T01:56:16.291Z,0
2019-01-30T01:57:16.528Z,0
2019-01-30T01:58:17.007Z,0
2019-01-30T01:59:16.979Z,0
2019-01-30T02:00:16.694Z,0
2019-01-30T02:01:16.684Z,0
2019-01-30T02:02:16.648Z,0
2019-01-30T02:03:17.003Z,0
2019-01-30T02:04:16.611Z,0
2019-01-30T02:05:16.846Z,0
2019-01-30T02:06:16.568Z,0
2019-01-30T02:07:16.652Z,0
2019-01-30T02:08:16.766Z,0
2019-01-30T02:09:16.488Z,0
2019-01-30T02:10:16.468Z,0
2019-01-30T02:11:16.192Z,0
2019-01-30T02:12:16.669Z,0
2019-01-30T02:13:16.394Z,0
2019-01-30T02:14:16.635Z,0
2019-01-30T02:15:16.361Z,0
2019-01-30T02:16:16.141Z,0
2019-01-30T02:17:16.335Z,0
2019-01-30T02:18:16.274Z,0
2019-01-30T02:19:16.505Z,0
2019-01-30T02:20:16.511Z,0
2019-01-30T02:21:15.708Z,0
2019-01-30T02:22:15.931Z,0
2019-01-30T02:23:16.159Z,0
2019-01-30T02:24:15.874Z,0
2019-01-30T02:25:16.426Z,0
2019-01-30T02:26:15.824Z,0
2019-01-30T02:27:16.073Z,0
2019-01-30T02:28:16.071Z,0
2019-01-30T02:29:16.024Z,0
2019-01-30T02:30:15.998Z,0
2019-01-30T02:31:15.708Z,0
2019-01-30T02:32:16.217Z,0
2019-01-30T02:33:16.000Z,0
2019-01-30T02:34:15.905Z,0
2019-01-30T02:35:15.891Z,0
2019-01-30T02:36:15.593Z,0
2019-01-30T02:37:15.838Z,0
2019-01-30T02:38:15.792Z,0
2019-01-30T02:39:15.271Z,0
2019-01-30T02:40:15.494Z,0
2019-01-30T02:41:15.755Z,0
2019-01-30T02:42:15.965Z,0
2019-01-30T02:43:15.430Z,0
2019-01-30T02:44:15.920Z,0
2019-01-30T02:45:15.951Z,0
2019-01-30T02:46:15.344Z,0
2019-01-30T02:47:15.830Z,0
2019-01-30T02:48:15.571Z,0
2019-01-30T02:49:15.294Z,0
2019-01-30T02:50:15.263Z,0
2019-01-30T02:51:15.738Z,0
2019-01-30T02:52:15.463Z,0
2019-01-30T02:53:15.180Z,0
2019-01-30T02:54:15.412Z,0
2019-01-30T02:55:15.655Z,0
2019-01-30T02:56:15.110Z,0
2019-01-30T02:57:15.096Z,0
2019-01-30T02:58:15.072Z,0
2019-01-30T02:59:15.060Z,0
2019-01-30T03:00:15.297Z,0
2019-01-30T03:01:15.249Z,0
2019-01-30T03:02:15.578Z,0
2019-01-30T03:03:15.480Z,0
2019-01-30T03:04:14.911Z,0
2019-01-30T03:05:14.891Z,0
2019-01-30T03:06:15.385Z,0
2019-01-30T03:07:15.102Z,0
2019-01-30T03:08:15.023Z,0
2019-01-30T03:09:15.073Z,0
2019-01-30T03:10:15.288Z,0
2019-01-30T03:11:14.749Z,0
2019-01-30T03:12:15.236Z,0
2019-01-30T03:13:14.458Z,0
2019-01-30T03:14:14.924Z,0
2019-01-30T03:15:14.899Z,0
2019-01-30T03:16:14.630Z,0
2019-01-30T03:17:14.858Z,0
2019-01-30T03:18:15.102Z,0
2019-01-30T03:19:14.700Z,0
2019-01-30T03:20:14.791Z,0
2019-01-30T03:21:14.770Z,0
2019-01-30T03:22:15.033Z,0
2019-01-30T03:23:14.485Z,0
2019-01-30T03:24:14.433Z,0
2019-01-30T03:25:14.664Z,0
2019-01-30T03:26:14.395Z,0
2019-01-30T03:27:14.612Z,0
2019-01-30T03:28:14.340Z,0
2019-01-30T03:29:14.563Z,0
2019-01-30T03:30:14.562Z,0
2019-01-30T03:31:25.001Z,0
2019-01-30T03:32:14.537Z,0
2019-01-30T03:33:14.763Z,0
2019-01-30T03:34:14.453Z,0
2019-01-30T03:35:14.689Z,0
2019-01-30T03:36:14.143Z,0
2019-01-30T03:37:14.377Z,0
2019-01-30T03:38:14.359Z,0
2019-01-30T03:39:14.577Z,0
2019-01-30T03:40:14.562Z,0
2019-01-30T03:41:14.536Z,0
2019-01-30T03:42:14.272Z,0
2019-01-30T03:43:14.505Z,0
2019-01-30T03:44:13.951Z,0
2019-01-30T03:45:14.202Z,0
2019-01-30T03:46:14.157Z,0
2019-01-30T03:47:14.145Z,0
2019-01-30T03:48:14.105Z,0
2019-01-30T03:49:14.085Z,0
2019-01-30T03:50:14.315Z,0
2019-01-30T03:51:14.058Z,0
2019-01-30T03:52:14.288Z,0
2019-01-30T03:53:13.772Z,0
2019-01-30T03:54:13.973Z,0
2019-01-30T03:55:13.948Z,0
2019-01-30T03:56:13.916Z,0
2019-01-30T03:57:13.905Z,0
2019-01-30T03:58:14.126Z,0
2019-01-30T03:59:14.097Z,0
2019-01-30T04:00:13.828Z,0
2019-01-30T04:01:13.547Z,0
2019-01-30T04:02:14.036Z,0
2019-01-30T04:03:13.493Z,0
2019-01-30T04:04:13.733Z,0
2019-01-30T04:05:13.443Z,0
2019-01-30T04:06:13.692Z,0
2019-01-30T04:07:13.923Z,0
2019-01-30T04:08:13.453Z,0
2019-01-30T04:09:13.864Z,0
2019-01-30T04:10:13.079Z,0
2019-01-30T04:11:13.869Z,0
2019-01-30T04:12:13.782Z,0
2019-01-30T04:13:13.015Z,0
2019-01-30T04:14:13.244Z,0
2019-01-30T04:15:13.268Z,0
2019-01-30T04:16:13.430Z,0
2019-01-30T04:17:13.188Z,0
2019-01-30T04:18:13.141Z,0
2019-01-30T04:19:12.853Z,0
2019-01-30T04:20:13.618Z,0
2019-01-30T04:21:13.576Z,0
2019-01-30T04:22:13.043Z,0
2019-01-30T04:23:13.311Z,0
2019-01-30T04:24:13.509Z,0
2019-01-30T04:25:13.489Z,0
2019-01-30T04:26:13.454Z,0
2019-01-30T04:27:13.276Z,0
2019-01-30T04:28:13.408Z,0
2019-01-30T04:29:13.379Z,0
2019-01-30T04:30:12.870Z,0
2019-01-30T04:31:13.330Z,0
2019-01-30T04:32:13.063Z,0
2019-01-30T04:33:13.040Z,0
2019-01-30T04:34:13.004Z,0
2019-01-30T04:35:13.239Z,0
2019-01-30T04:36:12.714Z,0
2019-01-30T04:37:13.191Z,0
2019-01-30T04:38:12.920Z,0
2019-01-30T04:39:12.638Z,0
2019-01-30T04:40:13.141Z,0
2019-01-30T04:41:13.092Z,0
2019-01-30T04:42:12.817Z,0
2019-01-30T04:43:12.792Z,0
2019-01-30T04:44:12.914Z,0
2019-01-30T04:45:12.747Z,0
2019-01-30T04:46:12.988Z,0
2019-01-30T04:47:12.742Z,0
2019-01-30T04:48:12.520Z,0
2019-01-30T04:49:12.660Z,0
2019-01-30T04:50:12.665Z,0
2019-01-30T04:51:12.603Z,0
2019-01-30T04:52:12.577Z,0
2019-01-30T04:53:12.340Z,0
2019-01-30T04:54:12.806Z,0
2019-01-30T04:55:12.245Z,0
2019-01-30T04:56:12.222Z,0
2019-01-30T04:57:12.731Z,0
2019-01-30T04:58:12.522Z,0
2019-01-30T04:59:12.415Z,0
2019-01-30T05:00:12.135Z,0
2019-01-30T05:01:12.108Z,0
2019-01-30T05:02:12.615Z,0
2019-01-30T05:03:12.152Z,0
2019-01-30T05:04:12.547Z,0
2019-01-30T05:05:12.274Z,0
2019-01-30T05:06:12.231Z,0
2019-01-30T05:07:11.711Z,0
2019-01-30T05:08:12.135Z,0
2019-01-30T05:09:11.921Z,0
2019-01-30T05:10:12.143Z,0
2019-01-30T05:11:12.127Z,0
2019-01-30T05:12:11.855Z,0
2019-01-30T05:13:12.502Z,0
2019-01-30T05:14:12.056Z,0
2019-01-30T05:15:11.765Z,0
2019-01-30T05:16:12.102Z,0
2019-01-30T05:17:12.007Z,0
2019-01-30T05:18:11.721Z,0
2019-01-30T05:19:11.663Z,0
2019-01-30T05:20:14.395Z,0
2019-01-30T05:21:11.871Z,0
2019-01-30T05:22:11.590Z,0
2019-01-30T05:23:12.133Z,0
2019-01-30T05:24:11.792Z,0
2019-01-30T05:25:11.778Z,0
2019-01-30T05:26:11.759Z,0
2019-01-30T05:27:11.230Z,0
2019-01-30T05:28:11.701Z,0
2019-01-30T05:29:11.182Z,0
2019-01-30T05:30:11.399Z,0
2019-01-30T05:31:11.883Z,0
2019-01-30T05:32:11.892Z,0
2019-01-30T05:33:11.605Z,0
2019-01-30T05:34:11.846Z,0
2019-01-30T05:35:11.549Z,0
2019-01-30T05:36:11.823Z,0
2019-01-30T05:37:11.235Z,0
2019-01-30T05:38:11.220Z,0
2019-01-30T05:39:11.694Z,0
2019-01-30T05:40:11.427Z,0
2019-01-30T05:41:11.393Z,0
2019-01-30T05:42:11.369Z,0
2019-01-30T05:43:11.089Z,0
2019-01-30T05:44:11.098Z,0
2019-01-30T05:45:11.287Z,0
2019-01-30T05:46:11.020Z,0
2019-01-30T05:47:10.747Z,0
2019-01-30T05:48:10.715Z,0
2019-01-30T05:49:11.448Z,0
2019-01-30T05:50:11.193Z,0
2019-01-30T05:51:10.943Z,0
2019-01-30T05:52:11.136Z,0
2019-01-30T05:53:11.114Z,0
2019-01-30T05:54:10.820Z,0
2019-01-30T05:55:11.314Z,0
2019-01-30T05:56:10.809Z,0
2019-01-30T05:57:10.746Z,0
2019-01-30T05:58:11.235Z,0
2019-01-30T05:59:11.057Z,0
2019-01-30T06:00:11.226Z,0
2019-01-30T06:01:10.653Z,0
2019-01-30T06:02:20.683Z,0
2019-01-30T06:03:10.879Z,0
2019-01-30T06:04:11.091Z,0
2019-01-30T06:05:10.558Z,0
2019-01-30T06:06:10.780Z,0
2019-01-30T06:07:10.787Z,0
2019-01-30T06:08:11.003Z,0
2019-01-30T06:09:10.720Z,0
2019-01-30T06:10:10.687Z,0
2019-01-30T06:11:12.178Z,0
2019-01-30T06:12:10.395Z,0
2019-01-30T06:13:10.619Z,0
2019-01-30T06:14:10.596Z,0
2019-01-30T06:15:10.830Z,0
2019-01-30T06:16:10.283Z,0
2019-01-30T06:17:12.180Z,0
2019-01-30T06:18:09.985Z,0
2019-01-30T06:19:09.966Z,0
2019-01-30T06:20:09.949Z,0
2019-01-30T06:21:10.698Z,0
2019-01-30T06:22:10.422Z,0
2019-01-30T06:23:10.641Z,0
2019-01-30T06:24:10.620Z,0
2019-01-30T06:25:10.662Z,0
2019-01-30T06:26:10.315Z,0
2019-01-30T06:27:10.560Z,0
2019-01-30T06:28:10.563Z,0
2019-01-30T06:29:09.986Z,0
2019-01-30T06:30:10.464Z,0
2019-01-30T06:31:10.188Z,0
2019-01-30T06:32:10.083Z,0
2019-01-30T06:33:10.412Z,0
2019-01-30T06:34:10.382Z,0
2019-01-30T06:35:09.837Z,0
2019-01-30T06:36:10.061Z,0
2019-01-30T06:37:09.801Z,0
2019-01-30T06:38:10.022Z,0
2019-01-30T06:39:10.246Z,0
2019-01-30T06:40:10.001Z,0
2019-01-30T06:41:09.689Z,0
2019-01-30T06:42:09.919Z,0
2019-01-30T06:43:09.990Z,4
2019-01-30T06:44:09.875Z,4
2019-01-30T06:45:10.106Z,4
2019-01-30T06:46:09.824Z,0
2019-01-30T06:47:09.827Z,4
2019-01-30T06:48:09.521Z,4
2019-01-30T06:49:09.818Z,4
2019-01-30T06:50:09.495Z,8
2019-01-30T06:51:09.450Z,4
2019-01-30T06:52:09.425Z,8
2019-01-30T06:53:10.027Z,8
2019-01-30T06:54:09.380Z,8
2019-01-30T06:55:09.094Z,12
2019-01-30T06:56:09.582Z,12
2019-01-30T06:57:09.324Z,16
2019-01-30T06:58:09.907Z,20
2019-01-30T06:59:09.528Z,20
2019-01-30T07:00:09.517Z,24
2019-01-30T07:01:09.475Z,28
2019-01-30T07:02:09.460Z,32
2019-01-30T07:03:09.417Z,36
2019-01-30T07:04:09.647Z,40
2019-01-30T07:05:09.624Z,44
2019-01-30T07:06:10.331Z,48
2019-01-30T07:07:09.316Z,56
2019-01-30T07:08:09.562Z,60
2019-01-30T07:09:09.351Z,64
2019-01-30T07:10:08.992Z,72
2019-01-30T07:11:17.406Z,84
2019-01-30T07:12:09.462Z,88
2019-01-30T07:13:09.174Z,96
2019-01-30T07:14:08.942Z,108
2019-01-30T07:15:09.137Z,116
2019-01-30T07:16:09.356Z,128
2019-01-30T07:17:09.337Z,140
2019-01-30T07:18:09.327Z,152
2019-01-30T07:19:09.030Z,168
2019-01-30T07:20:08.759Z,184
2019-01-30T07:21:09.011Z,204
2019-01-30T07:22:08.955Z,220
2019-01-30T07:23:09.186Z,240
2019-01-30T07:24:08.405Z,260
2019-01-30T07:25:09.148Z,280
2019-01-30T07:26:08.867Z,300
2019-01-30T07:27:08.596Z,320
2019-01-30T07:28:09.072Z,344
2019-01-30T07:29:08.839Z,368
2019-01-30T07:30:08.778Z,396
2019-01-30T07:31:08.482Z,420
2019-01-30T07:32:08.980Z,440
2019-01-30T07:33:08.744Z,464
2019-01-30T07:34:08.664Z,480
2019-01-30T07:35:08.393Z,500
2019-01-30T07:36:08.623Z,516
2019-01-30T07:37:08.872Z,536
2019-01-30T07:38:08.582Z,556
2019-01-30T07:39:08.555Z,580
2019-01-30T07:40:08.527Z,608
2019-01-30T07:41:08.251Z,640
2019-01-30T07:42:08.478Z,672
2019-01-30T07:43:08.243Z,708
2019-01-30T07:44:08.443Z,748
2019-01-30T07:45:08.408Z,788
2019-01-30T07:46:08.646Z,832
2019-01-30T07:47:08.648Z,872
2019-01-30T07:48:08.602Z,908
2019-01-30T07:49:08.060Z,948
2019-01-30T07:50:08.047Z,988
2019-01-30T07:51:08.268Z,1020
2019-01-30T07:52:08.245Z,1060
2019-01-30T07:53:08.481Z,1092
2019-01-30T07:54:08.195Z,1116
2019-01-30T07:55:08.308Z,1140
2019-01-30T07:56:08.414Z,1148
2019-01-30T07:57:07.866Z,1156
2019-01-30T07:58:10.512Z,1164
2019-01-30T07:59:07.829Z,1168
2019-01-30T08:00:08.318Z,1176
2019-01-30T08:01:07.828Z,1196
2019-01-30T08:02:08.102Z,1224
2019-01-30T08:03:07.985Z,1252
2019-01-30T08:04:08.227Z,1284
2019-01-30T08:05:07.933Z,1312
2019-01-30T08:06:07.908Z,1344
2019-01-30T08:07:10.161Z,1372
2019-01-30T08:08:07.696Z,1400
2019-01-30T08:09:07.836Z,1428
2019-01-30T08:10:07.811Z,1448
2019-01-30T08:11:09.804Z,1468
2019-01-30T08:12:08.079Z,1480
2019-01-30T08:13:07.804Z,1488
2019-01-30T08:14:08.708Z,1496
2019-01-30T08:15:07.803Z,1496
2019-01-30T08:16:07.665Z,1488
2019-01-30T08:17:07.418Z,1480
2019-01-30T08:18:07.894Z,1496
2019-01-30T08:19:07.688Z,1532
2019-01-30T08:20:07.771Z,1568
2019-01-30T08:21:07.835Z,1604
2019-01-30T08:22:07.533Z,1636
2019-01-30T08:23:08.727Z,1672
2019-01-30T08:24:08.786Z,1708
2019-01-30T08:25:08.108Z,1744
2019-01-30T08:26:08.036Z,1784
2019-01-30T08:27:08.533Z,1820
2019-01-30T08:28:07.828Z,1856
2019-01-30T08:29:08.406Z,1896
2019-01-30T08:30:08.279Z,1932
2019-01-30T08:31:08.016Z,1964
2019-01-30T08:32:08.231Z,1976
2019-01-30T08:33:13.095Z,1984
2019-01-30T08:34:07.365Z,1992
2019-01-30T08:35:06.970Z,1996
2019-01-30T08:36:07.208Z,2016
2019-01-30T08:37:06.933Z,2040
2019-01-30T08:38:07.466Z,2076
2019-01-30T08:39:07.384Z,2108
2019-01-30T08:40:06.637Z,2136
2019-01-30T08:41:06.569Z,2168
2019-01-30T08:42:06.803Z,2200
2019-01-30T08:43:07.062Z,2248
2019-01-30T08:44:07.282Z,2284
2019-01-30T08:45:06.874Z,2328
2019-01-30T08:46:06.961Z,2372
2019-01-30T08:47:06.692Z,2424
2019-01-30T08:48:06.667Z,2484
2019-01-30T08:49:06.390Z,2560
2019-01-30T08:50:07.132Z,2636
2019-01-30T08:51:06.843Z,2724
2019-01-30T08:52:06.569Z,2804
2019-01-30T08:53:07.061Z,2884
2019-01-30T08:54:06.779Z,2952
2019-01-30T08:55:06.522Z,3008
2019-01-30T08:56:06.767Z,3052
2019-01-30T08:57:06.728Z,3084
2019-01-30T08:58:06.688Z,3116
2019-01-30T08:59:08.387Z,3148
2019-01-30T09:00:06.649Z,3180
2019-01-30T09:01:06.378Z,3192
2019-01-30T09:02:06.341Z,3176
2019-01-30T09:03:16.553Z,3144
2019-01-30T09:04:06.542Z,3112
2019-01-30T09:05:06.526Z,3072
2019-01-30T09:06:06.514Z,3028
2019-01-30T09:07:06.474Z,2976
2019-01-30T09:08:08.822Z,2896
2019-01-30T09:09:06.687Z,2804
2019-01-30T09:10:06.436Z,2708
2019-01-30T09:11:06.671Z,2604
2019-01-30T09:12:06.117Z,2468
2019-01-30T09:13:06.588Z,2460
2019-01-30T09:14:05.814Z,2384
2019-01-30T09:15:06.301Z,2332
2019-01-30T09:16:06.273Z,2208
2019-01-30T09:17:10.644Z,2048
2019-01-30T09:18:06.236Z,1904
2019-01-30T09:19:07.684Z,1760
2019-01-30T09:20:06.194Z,1688
2019-01-30T09:21:05.905Z,1688
2019-01-30T09:22:05.880Z,1696
2019-01-30T09:23:06.367Z,1716
2019-01-30T09:24:05.864Z,1724
2019-01-30T09:25:06.064Z,1712
2019-01-30T09:26:06.049Z,1704
2019-01-30T09:27:06.021Z,1716
2019-01-30T09:28:05.999Z,1716
2019-01-30T09:29:05.729Z,1712
2019-01-30T09:30:05.696Z,1700
2019-01-30T09:31:06.185Z,1684
2019-01-30T09:32:05.912Z,1680
2019-01-30T09:33:05.928Z,1700
2019-01-30T09:34:05.925Z,1736
2019-01-30T09:35:05.634Z,1784
2019-01-30T09:36:06.081Z,1848
2019-01-30T09:37:06.142Z,1904
2019-01-30T09:38:05.516Z,1912
2019-01-30T09:39:06.169Z,1888
2019-01-30T09:40:06.285Z,1832
2019-01-30T09:41:05.565Z,1780
2019-01-30T09:42:05.715Z,1724
2019-01-30T09:43:05.698Z,1664
2019-01-30T09:44:05.410Z,1588
2019-01-30T09:45:05.662Z,1520
2019-01-30T09:46:05.587Z,1484
2019-01-30T09:47:05.497Z,1444
2019-01-30T09:48:05.855Z,1400
2019-01-30T09:49:05.555Z,1384
2019-01-30T09:50:05.491Z,1392
2019-01-30T09:51:05.257Z,1408
2019-01-30T09:52:05.709Z,1396
2019-01-30T09:53:05.545Z,1360
2019-01-30T09:54:05.468Z,1376
2019-01-30T09:55:05.687Z,1448
2019-01-30T09:56:05.627Z,1528
2019-01-30T09:57:05.378Z,1576
2019-01-30T09:58:05.561Z,1620
2019-01-30T09:59:05.541Z,1676
2019-01-30T10:00:05.268Z,1708
2019-01-30T10:01:05.264Z,1696
2019-01-30T10:02:05.519Z,1628
2019-01-30T10:03:05.211Z,1584
2019-01-30T10:04:05.422Z,1516
2019-01-30T10:05:05.401Z,1432
2019-01-30T10:06:05.124Z,1372
2019-01-30T10:07:05.099Z,1336
2019-01-30T10:08:05.097Z,1288
2019-01-30T10:09:04.842Z,1236
2019-01-30T10:10:05.034Z,1220
2019-01-30T10:11:04.765Z,1272
2019-01-30T10:12:04.732Z,1340
2019-01-30T10:13:04.532Z,1408
2019-01-30T10:14:04.433Z,1472
2019-01-30T10:15:05.214Z,1508
2019-01-30T10:16:04.652Z,1524
2019-01-30T10:17:05.151Z,1524
2019-01-30T10:18:04.900Z,1572
2019-01-30T10:19:04.570Z,1700
2019-01-30T10:20:05.139Z,1848
2019-01-30T10:21:04.529Z,1980
2019-01-30T10:22:04.757Z,2076
2019-01-30T10:23:05.007Z,2136
2019-01-30T10:24:04.455Z,2176
2019-01-30T10:25:05.198Z,2116
2019-01-30T10:26:04.411Z,2004
2019-01-30T10:27:04.471Z,1908
2019-01-30T10:28:04.622Z,1788
2019-01-30T10:29:04.845Z,1728
2019-01-30T10:30:05.584Z,1764
2019-01-30T10:31:04.802Z,1792
2019-01-30T10:32:04.782Z,1856
2019-01-30T10:33:04.805Z,1912
2019-01-30T10:34:04.479Z,1952
2019-01-30T10:35:04.207Z,2012
2019-01-30T10:36:04.526Z,2152
2019-01-30T10:37:06.254Z,2300
2019-01-30T10:38:04.390Z,2384
2019-01-30T10:39:04.623Z,2408
2019-01-30T10:40:04.361Z,2424
2019-01-30T10:41:04.075Z,2480
2019-01-30T10:42:04.654Z,2520
2019-01-30T10:43:04.350Z,2520
2019-01-30T10:44:04.536Z,2508
2019-01-30T10:45:04.253Z,2464
2019-01-30T10:46:04.208Z,2408
2019-01-30T10:47:04.443Z,2364
2019-01-30T10:48:04.417Z,2328
2019-01-30T10:49:03.628Z,2352
2019-01-30T10:50:04.374Z,2408
2019-01-30T10:51:03.843Z,2436
2019-01-30T10:52:04.326Z,2416
2019-01-30T10:53:03.791Z,2464
2019-01-30T10:54:04.019Z,2628
2019-01-30T10:55:04.344Z,2856
2019-01-30T10:56:03.968Z,3124
2019-01-30T10:57:03.956Z,3372
2019-01-30T10:58:03.755Z,3560
2019-01-30T10:59:03.909Z,3596
2019-01-30T11:00:03.893Z,3584
2019-01-30T11:01:04.127Z,3580
2019-01-30T11:02:03.586Z,3564
2019-01-30T11:03:03.579Z,3508
2019-01-30T11:04:04.655Z,3476
2019-01-30T11:05:04.075Z,3496
2019-01-30T11:06:03.764Z,3492
2019-01-30T11:07:03.974Z,3632
2019-01-30T11:08:03.702Z,3708
2019-01-30T11:09:03.430Z,3716
2019-01-30T11:10:03.675Z,3724
2019-01-30T11:11:12.358Z,3896
2019-01-30T11:12:03.864Z,3844
2019-01-30T11:13:03.593Z,3876
2019-01-30T11:14:03.825Z,4028
2019-01-30T11:15:05.186Z,4116
2019-01-30T11:16:05.856Z,4320
2019-01-30T11:17:03.496Z,4428
2019-01-30T11:18:03.751Z,4480
2019-01-30T11:19:03.249Z,4400
2019-01-30T11:20:03.720Z,4412
2019-01-30T11:21:05.758Z,4600
2019-01-30T11:22:03.388Z,4800
2019-01-30T11:23:03.101Z,4980
2019-01-30T11:24:03.083Z,4988
2019-01-30T11:25:05.575Z,4672
2019-01-30T11:26:04.044Z,4448
2019-01-30T11:27:03.013Z,4096
2019-01-30T11:28:03.000Z,3800
2019-01-30T11:29:03.490Z,3564
2019-01-30T11:30:03.213Z,3440
2019-01-30T11:31:03.211Z,3444
2019-01-30T11:32:02.915Z,3504
2019-01-30T11:33:03.144Z,3604
2019-01-30T11:34:12.096Z,3536
2019-01-30T11:35:02.831Z,3524
2019-01-30T11:36:02.806Z,3344
2019-01-30T11:37:05.138Z,3288
2019-01-30T11:38:03.089Z,3424
2019-01-30T11:39:03.272Z,3296
2019-01-30T11:40:03.480Z,3108
2019-01-30T11:41:03.255Z,3020
2019-01-30T11:42:03.008Z,2936
2019-01-30T11:43:03.168Z,2888
2019-01-30T11:44:02.632Z,2948
2019-01-30T11:45:02.918Z,2920
2019-01-30T11:46:02.345Z,2968
2019-01-30T11:47:02.829Z,2984
2019-01-30T11:48:02.814Z,2996
2019-01-30T11:49:03.985Z,2896
2019-01-30T11:50:02.762Z,2820
2019-01-30T11:51:02.730Z,2780
2019-01-30T11:52:02.472Z,2656
2019-01-30T11:53:02.685Z,2644
2019-01-30T11:54:02.671Z,2612
2019-01-30T11:55:02.663Z,2528
2019-01-30T11:56:02.142Z,2512
2019-01-30T11:57:02.355Z,2680
2019-01-30T11:58:02.826Z,2712
2019-01-30T11:59:02.372Z,2772
2019-01-30T12:00:02.728Z,2596
2019-01-30T12:01:03.479Z,2484
2019-01-30T12:02:02.547Z,2344
2019-01-30T12:03:02.482Z,2264
2019-01-30T12:04:02.231Z,2100
2019-01-30T12:05:02.027Z,1940
2019-01-30T12:06:02.139Z,1860
2019-01-30T12:07:02.119Z,1860
2019-01-30T12:08:02.608Z,1844
2019-01-30T12:09:02.648Z,1920
2019-01-30T12:10:03.121Z,2016
2019-01-30T12:11:02.544Z,2012
2019-01-30T12:12:02.258Z,1976
2019-01-30T12:13:01.982Z,2172
2019-01-30T12:14:02.481Z,2340
2019-01-30T12:15:02.196Z,2428
2019-01-30T12:16:02.167Z,2436
2019-01-30T12:17:01.897Z,2380
2019-01-30T12:18:02.123Z,2392
2019-01-30T12:19:01.596Z,2328
2019-01-30T12:20:02.344Z,2300
2019-01-30T12:21:01.824Z,2316
2019-01-30T12:22:02.062Z,2344
2019-01-30T12:23:02.015Z,2324
2019-01-30T12:24:02.038Z,2316
2019-01-30T12:25:01.971Z,2272
2019-01-30T12:26:01.961Z,2296
2019-01-30T12:27:02.278Z,2284
2019-01-30T12:28:01.919Z,2224
2019-01-30T12:29:02.138Z,2120
2019-01-30T12:30:01.870Z,2060
2019-01-30T12:31:01.574Z,2016
2019-01-30T12:32:01.831Z,1972
2019-01-30T12:33:01.532Z,1952
2019-01-30T12:34:03.465Z,1936
2019-01-30T12:35:02.004Z,1916
2019-01-30T12:36:01.715Z,1892
2019-01-30T12:37:01.710Z,1876
2019-01-30T12:38:02.041Z,1876
2019-01-30T12:39:01.689Z,1872
2019-01-30T12:40:01.635Z,1868
2019-01-30T12:41:01.604Z,1872
2019-01-30T12:42:01.333Z,1868
2019-01-30T12:43:01.587Z,1852
2019-01-30T12:44:01.294Z,1820
2019-01-30T12:45:01.268Z,1796
2019-01-30T12:46:01.499Z,1796
2019-01-30T12:47:01.219Z,1824
2019-01-30T12:48:01.450Z,1848
2019-01-30T12:49:01.423Z,1864
2019-01-30T12:50:01.149Z,1864
2019-01-30T12:51:01.470Z,1856
2019-01-30T12:52:01.611Z,1848
2019-01-30T12:53:01.340Z,1852
2019-01-30T12:54:01.053Z,1856
2019-01-30T12:55:01.306Z,1852
2019-01-30T12:56:01.302Z,1832
2019-01-30T12:57:00.744Z,1804
2019-01-30T12:58:01.220Z,1768
2019-01-30T12:59:01.306Z,1732
2019-01-30T13:00:00.941Z,1724
2019-01-30T13:01:00.902Z,1748
2019-01-30T13:02:01.135Z,1792
2019-01-30T13:03:00.919Z,1836
2019-01-30T13:04:01.081Z,1872
2019-01-30T13:05:01.326Z,1896
2019-01-30T13:06:01.035Z,1904
2019-01-30T13:07:01.035Z,1908
2019-01-30T13:08:00.988Z,1924
2019-01-30T13:09:01.175Z,1968
2019-01-30T13:10:01.201Z,2028
2019-01-30T13:11:01.190Z,2068
2019-01-30T13:12:00.651Z,2088
2019-01-30T13:13:00.879Z,2108
2019-01-30T13:14:00.604Z,2144
2019-01-30T13:15:00.587Z,2204
2019-01-30T13:16:00.899Z,2276
2019-01-30T13:17:00.792Z,2320
2019-01-30T13:18:00.825Z,2348
2019-01-30T13:19:00.740Z,2372
2019-01-30T13:20:00.620Z,2400
2019-01-30T13:21:00.693Z,2452
2019-01-30T13:22:00.930Z,2512
2019-01-30T13:23:00.166Z,2560
2019-01-30T13:24:00.892Z,2580
2019-01-30T13:25:00.417Z,2600
2019-01-30T13:26:00.615Z,2640
2019-01-30T13:27:00.048Z,2680
2019-01-30T13:28:00.803Z,2724
2019-01-30T13:29:00.778Z,2732
2019-01-30T13:30:00.305Z,2712
2019-01-30T13:31:00.722Z,2720
2019-01-30T13:32:00.201Z,2760
2019-01-30T13:33:00.447Z,2808
2019-01-30T13:34:00.679Z,2836
2019-01-30T13:35:00.635Z,2828
2019-01-30T13:36:00.203Z,2776
2019-01-30T13:37:00.595Z,2696
2019-01-30T13:38:00.582Z,2568
2019-01-30T13:39:00.310Z,2436
2019-01-30T13:40:00.018Z,2344
2019-01-30T13:41:00.280Z,2316
2019-01-30T13:41:59.750Z,2320
2019-01-30T13:43:00.209Z,2320
2019-01-30T13:44:00.191Z,2312
2019-01-30T13:45:00.229Z,2308
2019-01-30T13:46:09.993Z,2256
2019-01-30T13:47:00.124Z,2192
2019-01-30T13:48:00.194Z,2136
2019-01-30T13:49:00.172Z,2084
2019-01-30T13:50:00.064Z,2084
2019-01-30T13:51:00.112Z,2088
2019-01-30T13:51:59.791Z,2016
2019-01-30T13:52:59.769Z,1956
2019-01-30T13:54:00.278Z,1936
2019-01-30T13:55:00.053Z,1904
2019-01-30T13:55:59.925Z,1832
2019-01-30T13:56:59.942Z,1736
2019-01-30T13:58:00.168Z,1624
2019-01-30T13:59:00.161Z,1520
2019-01-30T14:00:00.125Z,1472
2019-01-30T14:00:59.347Z,1488
2019-01-30T14:01:59.870Z,1516